createdAt,value
2023-03-18T00:00:25.531Z,10.15
2023-03-18T00:02:54.942Z,10.18
2023-03-18T00:05:22.637Z,12.52
2023-03-18T00:07:50.339Z,10.25
2023-03-18T00:10:18.760Z,10.20
2023-03-18T00:12:46.336Z,9.90
2023-03-18T00:15:17.981Z,9.98
2023-03-18T00:17:45.605Z,11.45
2023-03-18T00:20:18.157Z,10.38
2023-03-18T00:22:46.752Z,10.87
2023-03-18T00:25:16.293Z,10.00
2023-03-18T00:27:43.859Z,12.00
2023-03-18T00:30:13.302Z,10.90
2023-03-18T00:32:42.127Z,10.30
2023-03-18T00:35:10.856Z,10.20
2023-03-18T00:37:39.855Z,10.43
2023-03-18T00:40:10.555Z,8.52
2023-03-18T00:42:47.204Z,8.88
2023-03-18T00:45:17.004Z,9.45
2023-03-18T00:47:45.398Z,10.82
2023-03-18T00:50:13.627Z,8.88
2023-03-18T00:52:42.652Z,8.63
2023-03-18T00:55:11.572Z,13.38
2023-03-18T00:57:39.231Z,11.32
2023-03-18T01:00:08.036Z,9.48
2023-03-18T01:02:35.827Z,7.95
2023-03-18T01:05:04.072Z,7.32
2023-03-18T01:07:31.862Z,10.77
2023-03-18T01:10:01.136Z,10.02
2023-03-18T01:12:28.713Z,15.82
2023-03-18T01:14:56.367Z,12.90
2023-03-18T01:17:23.979Z,8.30
2023-03-18T01:19:51.513Z,10.93
2023-03-18T01:22:19.554Z,7.38
2023-03-18T01:24:50.537Z,11.00
2023-03-18T01:27:22.344Z,6.90
2023-03-18T01:29:50.081Z,8.73
2023-03-18T01:32:24.035Z,11.63
2023-03-18T01:34:51.901Z,11.75
2023-03-18T01:39:55.322Z,9.18
2023-03-18T01:42:25.817Z,8.70
2023-03-18T01:45:19.896Z,8.75
2023-03-18T01:47:49.930Z,7.53
2023-03-18T01:50:22.995Z,8.77
2023-03-18T01:52:56.225Z,9.68
2023-03-18T01:55:27.359Z,11.27
2023-03-18T01:57:57.109Z,9.50
2023-03-18T02:00:25.298Z,8.98
2023-03-18T02:02:54.896Z,7.38
2023-03-18T02:07:52.663Z,7.40
2023-03-18T02:10:23.881Z,8.63
2023-03-18T02:12:54.256Z,7.22
2023-03-18T02:15:33.006Z,7.55
2023-03-18T02:18:05.765Z,5.25
2023-03-18T02:20:42.122Z,7.37
2023-03-18T02:23:25.750Z,9.70
2023-03-18T02:26:00.275Z,7.72
2023-03-18T02:28:31.754Z,13.23
2023-03-18T02:31:04.989Z,7.78
2023-03-18T02:33:36.335Z,6.45
2023-03-18T02:36:07.508Z,7.97
2023-03-18T02:38:42.755Z,9.05
2023-03-18T02:41:19.900Z,7.47
2023-03-18T02:43:51.544Z,7.63
2023-03-18T02:46:42.418Z,8.30
2023-03-18T02:49:11.098Z,6.80
2023-03-18T02:51:39.494Z,6.72
2023-03-18T02:54:10.124Z,6.03
2023-03-18T02:56:38.113Z,7.25
2023-03-18T02:59:07.314Z,7.70
2023-03-18T03:01:36.466Z,7.25
2023-03-18T03:04:06.772Z,6.90
2023-03-18T03:06:35.969Z,7.63
2023-03-18T03:09:04.416Z,5.75
2023-03-18T03:11:32.072Z,7.25
2023-03-18T03:14:09.341Z,5.70
2023-03-18T03:16:37.691Z,6.85
2023-03-18T03:19:06.670Z,8.27
2023-03-18T03:21:35.865Z,4.97
2023-03-18T03:24:04.102Z,7.57
2023-03-18T03:26:32.255Z,5.65
2023-03-18T03:29:00.487Z,6.18
2023-03-18T03:31:29.417Z,4.97
2023-03-18T03:33:58.499Z,8.90
2023-03-18T03:36:26.147Z,6.55
2023-03-18T03:38:53.922Z,7.22
2023-03-18T03:41:22.115Z,8.70
2023-03-18T03:43:50.560Z,7.65
2023-03-18T03:46:18.104Z,5.32
2023-03-18T03:48:48.371Z,6.07
2023-03-18T03:51:17.272Z,6.68
2023-03-18T03:53:46.142Z,6.97
2023-03-18T03:56:15.498Z,4.18
2023-03-18T03:58:43.191Z,5.93
2023-03-18T04:01:10.909Z,6.57
2023-03-18T04:03:38.979Z,5.60
2023-03-18T04:06:10.748Z,6.10
2023-03-18T04:08:44.802Z,7.20
2023-03-18T04:11:12.498Z,8.73
2023-03-18T04:13:42.653Z,9.00
2023-03-18T04:16:10.542Z,7.30
2023-03-18T04:18:38.214Z,6.75
2023-03-18T04:21:08.035Z,6.00
2023-03-18T04:23:57.434Z,4.57
2023-03-18T04:26:25.234Z,4.85
2023-03-18T04:28:54.343Z,5.43
2023-03-18T04:31:23.164Z,4.18
2023-03-18T04:33:50.897Z,9.13
2023-03-18T04:36:18.564Z,9.80
2023-03-18T04:38:46.336Z,5.57
2023-03-18T04:41:15.333Z,8.52
2023-03-18T04:43:43.313Z,7.63
2023-03-18T04:46:11.934Z,7.00
2023-03-18T04:48:40.613Z,5.47
2023-03-18T04:51:10.171Z,6.05
2023-03-18T04:53:40.174Z,4.07
2023-03-18T04:56:10.292Z,5.72
2023-03-18T04:58:46.464Z,6.72
2023-03-18T05:01:19.253Z,5.07
2023-03-18T05:03:47.343Z,6.50
2023-03-18T05:06:22.882Z,10.32
2023-03-18T05:09:00.150Z,9.95
2023-03-18T05:11:33.025Z,9.35
2023-03-18T05:14:08.609Z,9.95
2023-03-18T05:16:43.211Z,4.68
2023-03-18T05:19:11.068Z,5.03
2023-03-18T05:21:45.615Z,6.32
2023-03-18T05:24:13.240Z,7.32
2023-03-18T05:26:42.611Z,5.22
2023-03-18T05:29:12.652Z,7.43
2023-03-18T05:31:52.029Z,5.68
2023-03-18T05:34:19.816Z,6.78
2023-03-18T05:36:48.105Z,4.55
2023-03-18T05:39:16.309Z,4.07
2023-03-18T05:41:44.801Z,5.30
2023-03-18T05:44:17.224Z,4.82
2023-03-18T05:46:44.929Z,4.55
2023-03-18T05:49:18.109Z,4.75
2023-03-18T05:52:05.906Z,6.25
2023-03-18T05:54:39.565Z,5.82
2023-03-18T05:57:07.347Z,5.05
2023-03-18T05:59:36.638Z,6.68
2023-03-18T06:02:04.405Z,4.72
2023-03-18T06:04:32.623Z,4.75
2023-03-18T06:07:01.131Z,6.90
2023-03-18T06:09:28.717Z,3.92
2023-03-18T06:11:57.137Z,4.68
2023-03-18T06:14:29.173Z,5.78
2023-03-18T06:17:01.403Z,4.80
2023-03-18T06:19:30.681Z,4.10
2023-03-18T06:21:58.722Z,6.43
2023-03-18T06:24:26.304Z,3.95
2023-03-18T06:26:55.612Z,5.18
2023-03-18T06:29:23.750Z,5.22
2023-03-18T06:31:53.156Z,3.75
2023-03-18T06:34:26.656Z,7.35
2023-03-18T06:36:56.472Z,4.60
2023-03-18T06:39:24.705Z,4.43
2023-03-18T06:41:53.044Z,6.18
2023-03-18T06:44:29.910Z,5.60
2023-03-18T06:47:02.676Z,9.23
2023-03-18T06:49:35.961Z,9.05
2023-03-18T06:52:13.434Z,9.02
2023-03-18T06:54:44.518Z,5.07
2023-03-18T06:57:12.313Z,4.90
2023-03-18T06:59:40.628Z,9.65
2023-03-18T07:02:10.974Z,4.68
2023-03-18T07:04:40.077Z,5.68
2023-03-18T07:07:08.332Z,4.93
2023-03-18T07:09:37.551Z,5.65
2023-03-18T07:12:06.322Z,5.22
2023-03-18T07:14:33.988Z,3.20
2023-03-18T07:17:02.110Z,3.75
2023-03-18T07:19:29.875Z,5.35
2023-03-18T07:21:58.911Z,4.72
2023-03-18T07:24:26.843Z,5.28
2023-03-18T07:26:54.550Z,5.00
2023-03-18T07:29:22.159Z,4.22
2023-03-18T07:31:50.152Z,4.55
2023-03-18T07:34:18.727Z,4.65
2023-03-18T07:36:46.847Z,5.60
2023-03-18T07:39:15.841Z,4.15
2023-03-18T07:41:43.771Z,9.23
2023-03-18T07:52:29.353Z,5.05
2023-03-18T07:54:58.213Z,5.63
2023-03-18T07:57:25.959Z,3.88
2023-03-18T07:59:53.516Z,4.65
2023-03-18T08:02:21.632Z,4.97
2023-03-18T08:04:49.299Z,3.97
2023-03-18T08:07:17.159Z,5.70
2023-03-18T08:09:44.862Z,5.35
2023-03-18T08:12:13.986Z,6.82
2023-03-18T08:14:41.560Z,5.63
2023-03-18T08:17:09.582Z,5.35
2023-03-18T08:19:37.498Z,5.93
2023-03-18T08:22:05.103Z,4.45
2023-03-18T08:24:32.706Z,7.15
2023-03-18T08:27:00.230Z,7.07
2023-03-18T08:29:29.181Z,6.32
2023-03-18T08:31:57.084Z,5.43
2023-03-18T08:34:24.619Z,3.65
2023-03-18T08:36:52.558Z,4.82
2023-03-18T08:39:20.226Z,3.97
2023-03-18T08:41:48.637Z,4.50
2023-03-18T08:44:16.360Z,3.17
2023-03-18T08:46:45.315Z,2.47
2023-03-18T08:49:13.927Z,3.05
2023-03-18T08:51:41.940Z,1.83
2023-03-18T08:54:09.559Z,3.15
2023-03-18T08:56:38.104Z,2.92
2023-03-18T08:59:05.643Z,2.97
2023-03-18T09:01:33.259Z,2.28
2023-03-18T09:04:02.176Z,3.42
2023-03-18T09:06:30.305Z,6.10
2023-03-18T09:08:58.092Z,1.95
2023-03-18T09:11:26.266Z,5.15
2023-03-18T09:13:54.476Z,6.18
2023-03-18T09:16:22.807Z,3.80
2023-03-18T09:18:50.434Z,2.80
2023-03-18T09:21:19.416Z,2.65
2023-03-18T09:23:46.963Z,2.40
2023-03-18T09:26:14.748Z,2.95
2023-03-18T09:28:42.336Z,3.03
2023-03-18T09:31:09.910Z,3.25
2023-03-18T09:33:37.699Z,3.03
2023-03-18T09:36:05.967Z,3.72
2023-03-18T09:38:35.182Z,4.13
2023-03-18T09:41:17.402Z,2.97
2023-03-18T09:43:57.218Z,3.92
2023-03-18T09:46:33.812Z,3.13
2023-03-18T09:49:36.871Z,2.38
2023-03-18T09:52:14.808Z,2.90
2023-03-18T09:54:50.010Z,1.45
2023-03-18T09:57:23.812Z,3.30
2023-03-18T09:59:55.673Z,2.35
2023-03-18T10:02:28.314Z,2.78
2023-03-18T10:04:59.502Z,2.25
2023-03-18T10:07:34.429Z,3.10
2023-03-18T10:10:10.202Z,5.03
2023-03-18T10:12:41.983Z,1.58
2023-03-18T10:15:17.812Z,3.00
2023-03-18T10:17:51.592Z,6.90
2023-03-18T10:20:21.529Z,1.88
2023-03-18T10:23:07.050Z,3.47
2023-03-18T10:25:40.479Z,2.15
2023-03-18T10:28:38.438Z,2.35
2023-03-18T10:31:17.125Z,1.33
2023-03-18T10:33:49.021Z,3.65
2023-03-18T10:36:20.707Z,1.77
2023-03-18T10:38:52.622Z,1.83
2023-03-18T10:41:28.782Z,1.23
2023-03-18T10:43:57.990Z,2.72
2023-03-18T10:46:28.243Z,2.38
2023-03-18T10:49:01.493Z,3.20
2023-03-18T10:51:35.486Z,1.98
2023-03-18T10:54:10.441Z,3.17
2023-03-18T10:56:39.436Z,2.80
2023-03-18T10:59:13.226Z,3.13
2023-03-18T11:01:41.532Z,2.78
2023-03-18T11:04:15.370Z,3.35
2023-03-18T11:06:48.117Z,1.50
2023-03-18T11:09:19.818Z,1.95
2023-03-18T11:11:49.966Z,3.70
2023-03-18T11:14:20.930Z,3.78
2023-03-18T11:16:57.430Z,2.08
2023-03-18T11:19:32.029Z,1.67
2023-03-18T11:22:17.410Z,1.80
2023-03-18T11:24:45.044Z,2.65
2023-03-18T11:27:29.976Z,3.63
2023-03-18T11:30:00.244Z,2.03
2023-03-18T11:32:31.076Z,10.10
2023-03-18T11:35:00.732Z,3.17
2023-03-18T11:37:31.316Z,1.60
2023-03-18T11:40:18.305Z,2.30
2023-03-18T11:42:49.570Z,1.85
2023-03-18T11:45:32.055Z,4.05
2023-03-18T11:47:59.908Z,2.25
2023-03-18T11:50:39.294Z,3.33
2023-03-18T11:53:14.220Z,3.65
2023-03-18T11:55:46.578Z,3.35
2023-03-18T11:58:41.918Z,2.42
2023-03-18T12:09:42.624Z,3.40
2023-03-18T12:12:29.268Z,2.63
2023-03-18T12:15:06.609Z,4.55
2023-03-18T12:17:44.644Z,4.22
2023-03-18T12:20:31.354Z,2.10
2023-03-18T12:23:04.773Z,4.82
2023-03-18T12:28:28.355Z,2.78
2023-03-18T12:31:13.975Z,1.55
2023-03-18T12:33:55.108Z,1.48
2023-03-18T12:36:32.238Z,2.13
2023-03-18T12:39:45.399Z,2.85
2023-03-18T12:42:18.137Z,2.97
2023-03-18T12:44:59.314Z,2.22
2023-03-18T12:47:36.984Z,2.40
2023-03-18T12:50:08.860Z,1.30
2023-03-18T12:52:43.858Z,2.50
2023-03-18T12:55:17.061Z,1.50
2023-03-18T13:00:23.655Z,4.38
2023-03-18T13:03:06.196Z,2.92
2023-03-18T13:05:41.573Z,6.68
2023-03-18T13:08:45.129Z,4.95
2023-03-18T13:11:27.006Z,11.13
2023-03-18T13:14:00.681Z,2.00
2023-03-18T13:16:35.228Z,9.18
2023-03-18T13:19:04.892Z,4.65
2023-03-18T13:21:37.678Z,2.58
2023-03-18T13:24:44.671Z,3.20
2023-03-18T13:27:29.918Z,2.30
2023-03-18T13:30:07.637Z,3.30
2023-03-18T13:32:50.744Z,2.72
2023-03-18T13:36:05.371Z,3.03
2023-03-18T13:38:58.389Z,3.22
2023-03-18T13:41:42.998Z,5.70
2023-03-18T13:44:17.251Z,2.25
2023-03-18T13:46:55.222Z,3.08
2023-03-18T13:49:27.696Z,2.03
2023-03-18T13:51:59.282Z,2.45
2023-03-18T13:54:34.730Z,2.60
2023-03-18T13:57:19.300Z,1.85
2023-03-18T13:59:49.585Z,1.83
2023-03-18T14:02:43.465Z,4.88
2023-03-18T14:05:35.333Z,4.78
2023-03-18T14:08:07.102Z,2.38
2023-03-18T14:10:34.704Z,2.30
2023-03-18T14:13:27.358Z,2.75
2023-03-18T14:15:58.679Z,10.95
2023-03-18T14:18:28.911Z,5.18
2023-03-18T14:21:02.561Z,4.78
2023-03-18T14:23:38.841Z,3.47
2023-03-18T14:26:09.310Z,5.72
2023-03-18T14:28:46.287Z,12.68
2023-03-18T14:31:22.328Z,4.60
2023-03-18T14:34:02.743Z,3.80
2023-03-18T14:36:46.858Z,8.15
2023-03-18T14:39:19.828Z,2.28
2023-03-18T14:44:22.820Z,4.20
2023-03-18T14:46:53.450Z,4.05
2023-03-18T14:49:35.463Z,4.03
2023-03-18T14:52:07.319Z,2.15
2023-03-18T14:54:43.643Z,3.45
2023-03-18T14:57:11.428Z,2.55
2023-03-18T14:59:38.974Z,2.92
2023-03-18T15:02:21.158Z,2.70
2023-03-18T15:04:54.408Z,1.92
2023-03-18T15:07:26.329Z,3.40
2023-03-18T15:09:56.830Z,2.75
2023-03-18T15:12:27.979Z,3.80
2023-03-18T15:14:55.690Z,3.55
2023-03-18T15:17:27.219Z,3.42
2023-03-18T15:19:59.927Z,3.00
2023-03-18T15:22:31.249Z,1.52
2023-03-18T15:25:02.769Z,2.80
2023-03-18T15:27:33.032Z,1.65
2023-03-18T15:30:04.586Z,2.08
2023-03-18T15:32:33.499Z,3.35
2023-03-18T15:35:16.450Z,4.10
2023-03-18T15:37:45.245Z,2.63
2023-03-18T15:40:25.998Z,2.78
2023-03-18T15:42:56.509Z,2.40
2023-03-18T15:45:28.088Z,3.17
2023-03-18T15:47:55.940Z,2.25
2023-03-18T15:50:29.162Z,3.08
2023-03-18T15:53:07.102Z,2.88
2023-03-18T15:55:48.446Z,1.83
2023-03-18T15:58:22.845Z,3.03
2023-03-18T16:00:52.486Z,2.35
2023-03-18T16:03:23.522Z,2.65
2023-03-18T16:05:51.481Z,3.70
2023-03-18T16:08:21.305Z,2.58
2023-03-18T16:10:52.690Z,2.53
2023-03-18T16:13:24.362Z,2.72
2023-03-18T16:15:53.171Z,3.00
2023-03-18T16:18:21.268Z,2.78
2023-03-18T16:20:49.440Z,2.20
2023-03-18T16:23:18.633Z,2.63
2023-03-18T16:25:48.295Z,3.25
2023-03-18T16:28:20.620Z,2.10
2023-03-18T16:30:49.520Z,1.97
2023-03-18T16:33:18.884Z,3.63
2023-03-18T16:35:51.122Z,1.85
2023-03-18T16:38:19.596Z,2.33
2023-03-18T16:40:47.284Z,2.08
2023-03-18T16:43:19.623Z,2.90
2023-03-18T16:45:48.396Z,4.55
2023-03-18T16:48:18.913Z,4.35
2023-03-18T16:50:48.569Z,4.32
2023-03-18T16:53:19.018Z,3.55
2023-03-18T16:55:48.010Z,3.55
2023-03-18T16:58:19.556Z,3.45
2023-03-18T17:00:51.196Z,3.03
2023-03-18T17:03:19.962Z,2.47
2023-03-18T17:05:50.206Z,2.72
2023-03-18T17:08:19.087Z,3.22
2023-03-18T17:10:49.281Z,4.07
2023-03-18T17:13:22.797Z,3.28
2023-03-18T17:15:51.537Z,4.00
2023-03-18T17:18:21.196Z,3.88
2023-03-18T17:20:49.978Z,4.18
2023-03-18T17:23:20.312Z,2.95
2023-03-18T17:25:51.694Z,2.83
2023-03-18T17:28:27.798Z,3.33
2023-03-18T17:30:55.644Z,3.65
2023-03-18T17:33:26.974Z,1.77
2023-03-18T17:35:56.436Z,4.68
2023-03-18T17:38:24.062Z,4.15
2023-03-18T17:40:51.931Z,3.42
2023-03-18T17:43:28.492Z,3.63
2023-03-18T17:45:56.519Z,3.17
2023-03-18T17:48:26.305Z,4.30
2023-03-18T17:50:56.060Z,2.83
2023-03-18T17:53:27.379Z,7.10
2023-03-18T17:55:55.837Z,5.15
2023-03-18T17:58:27.405Z,4.53
2023-03-18T18:00:55.771Z,3.45
2023-03-18T18:03:26.634Z,3.03
2023-03-18T18:05:55.235Z,2.78
2023-03-18T18:08:25.356Z,7.47
2023-03-18T18:10:54.966Z,3.53
2023-03-18T18:13:23.693Z,6.28
2023-03-18T18:15:52.740Z,3.92
2023-03-18T18:18:26.492Z,3.17
2023-03-18T18:20:56.987Z,3.78
2023-03-18T18:23:28.802Z,6.00
2023-03-18T18:26:01.338Z,4.93
2023-03-18T18:28:35.772Z,7.23
2023-03-18T18:31:07.826Z,2.83
2023-03-18T18:33:36.730Z,3.80
2023-03-18T18:36:04.613Z,4.15
2023-03-18T18:38:32.236Z,4.10
2023-03-18T18:41:01.252Z,6.95
2023-03-18T18:43:29.736Z,4.57
2023-03-18T18:46:00.027Z,3.25
2023-03-18T18:48:31.553Z,6.30
2023-03-18T18:50:59.873Z,8.60
2023-03-18T18:53:29.476Z,9.43
2023-03-18T18:55:59.590Z,10.52
2023-03-18T18:58:30.111Z,8.20
2023-03-18T19:00:58.650Z,13.95
2023-03-18T19:03:31.570Z,15.95
2023-03-18T19:06:00.955Z,8.93
2023-03-18T19:08:31.629Z,5.72
2023-03-18T19:11:01.258Z,5.53
2023-03-18T19:13:30.482Z,4.72
2023-03-18T19:16:00.708Z,10.05
2023-03-18T19:18:37.004Z,13.27
2023-03-18T19:21:05.048Z,9.30
2023-03-18T19:23:34.050Z,8.02
2023-03-18T19:26:03.411Z,5.57
2023-03-18T19:28:58.419Z,7.95
2023-03-18T19:31:30.296Z,7.22
2023-03-18T19:34:00.461Z,6.38
2023-03-18T19:36:30.157Z,8.15
2023-03-18T19:39:00.281Z,7.03
2023-03-18T19:41:28.414Z,6.85
2023-03-18T19:43:59.633Z,6.82
2023-03-18T19:46:32.428Z,7.45
2023-03-18T19:49:01.778Z,7.70
2023-03-18T19:51:29.301Z,8.27
2023-03-18T19:53:57.303Z,8.90
2023-03-18T19:56:26.772Z,6.43
2023-03-18T19:58:55.727Z,8.48
2023-03-18T20:01:23.871Z,11.57
2023-03-18T20:03:54.850Z,8.55
2023-03-18T20:06:24.116Z,10.75
2023-03-18T20:08:51.758Z,11.02
2023-03-18T20:11:21.696Z,11.45
2023-03-18T20:13:49.562Z,13.18
2023-03-18T20:16:19.294Z,12.73
2023-03-18T20:18:46.863Z,12.57
2023-03-18T20:21:22.684Z,15.27
2023-03-18T20:23:52.557Z,15.18
2023-03-18T20:26:20.289Z,15.25
2023-03-18T20:28:50.022Z,14.88
2023-03-18T20:31:17.618Z,16.25
2023-03-18T20:33:45.871Z,18.92
2023-03-18T20:36:17.256Z,14.82
2023-03-18T20:38:48.494Z,14.50
2023-03-18T20:41:19.238Z,14.10
2023-03-18T20:43:49.170Z,14.07
2023-03-18T20:46:17.637Z,13.45
2023-03-18T20:48:46.005Z,12.68
2023-03-18T20:51:20.851Z,13.50
2023-03-18T20:53:49.329Z,12.68
2023-03-18T20:56:19.388Z,14.07
2023-03-18T20:58:47.021Z,12.68
2023-03-18T21:01:15.022Z,15.65
2023-03-18T21:03:43.040Z,12.68
2023-03-18T21:06:13.496Z,12.25
2023-03-18T21:08:41.359Z,11.63
2023-03-18T21:11:22.689Z,14.45
2023-03-18T21:13:50.956Z,13.98
2023-03-18T21:16:19.855Z,10.30
2023-03-18T21:18:49.471Z,12.20
2023-03-18T21:21:23.429Z,12.07
2023-03-18T21:23:52.311Z,11.23
2023-03-18T21:26:21.635Z,14.10
2023-03-18T21:28:49.151Z,10.95
2023-03-18T21:31:23.969Z,13.82
2023-03-18T21:33:53.112Z,11.95
2023-03-18T21:36:21.729Z,11.73
2023-03-18T21:38:49.575Z,12.88
2023-03-18T21:41:21.934Z,9.80
2023-03-18T21:43:50.479Z,11.43
2023-03-18T21:46:20.115Z,11.23
2023-03-18T21:48:47.967Z,12.98
2023-03-18T21:51:37.451Z,13.30
2023-03-18T21:54:06.365Z,9.68
2023-03-18T21:56:35.266Z,15.45
2023-03-18T21:59:02.875Z,14.52
2023-03-18T22:01:32.212Z,12.90
2023-03-18T22:04:00.413Z,10.68
2023-03-18T22:06:27.988Z,11.15
2023-03-18T22:08:56.868Z,9.20
2023-03-18T22:11:24.528Z,12.30
2023-03-18T22:13:53.861Z,10.85
2023-03-18T22:16:21.838Z,10.90
2023-03-18T22:18:49.488Z,9.82
2023-03-18T22:21:22.568Z,11.82
2023-03-18T22:23:50.555Z,16.45
2023-03-18T22:26:20.509Z,21.85
2023-03-18T22:28:49.567Z,17.60
2023-03-18T22:31:21.570Z,10.88
2023-03-18T22:33:49.276Z,10.20
2023-03-18T22:36:18.486Z,11.60
2023-03-18T22:38:46.766Z,10.77
2023-03-18T22:41:20.612Z,12.52
2023-03-18T22:43:48.850Z,11.60
2023-03-18T22:46:16.567Z,10.38
2023-03-18T22:48:45.491Z,13.27
2023-03-18T22:51:22.697Z,12.38
2023-03-18T22:53:52.296Z,11.55
2023-03-18T22:56:20.898Z,10.55
2023-03-18T22:58:48.493Z,10.45
2023-03-18T23:01:18.513Z,10.40
2023-03-18T23:03:47.813Z,12.55
2023-03-18T23:06:17.311Z,12.95
2023-03-18T23:08:46.041Z,11.35
2023-03-18T23:11:14.801Z,9.95
2023-03-18T23:13:44.152Z,13.63
2023-03-18T23:16:16.919Z,12.15
2023-03-18T23:18:44.508Z,10.77
2023-03-18T23:21:16.793Z,11.52
2023-03-18T23:23:44.499Z,8.70
2023-03-18T23:26:12.292Z,12.73
2023-03-18T23:28:44.887Z,10.15
2023-03-18T23:31:13.302Z,11.75
2023-03-18T23:33:40.953Z,9.23
2023-03-18T23:36:09.289Z,10.15
2023-03-18T23:38:38.641Z,7.97
2023-03-18T23:41:07.053Z,8.23
2023-03-18T23:43:34.605Z,9.77
2023-03-18T23:46:03.618Z,9.32
2023-03-18T23:48:31.330Z,9.02
2023-03-18T23:50:58.859Z,12.88
2023-03-18T23:53:26.423Z,10.82
2023-03-18T23:55:55.332Z,11.75
2023-03-18T23:58:22.880Z,11.63
